UK Observations

EGVA 112236Z AUTO 10004KT 9999 SCT032 BKN130 M A3016 RMK AO2 SLPNO ALSTG ESTMD $ KGNC 112235Z AUTO 22009KT 10SM CLR 13/05 A3009 RMK AO2 T01270050 EGAA 112220Z 13012KT 9999 FEW010 SCT018 BKN023 10/08 Q1014 EGAC 112220Z AUTO 14013KT 9999 -RA FEW013/// SCT019/// BKN023/// 10/08 Q1015 EGBB 112220Z 14008KT 9999 FEW022 BKN037 06/05 Q1021 EGCC 112220Z AUTO 13006KT 100V170 9999 BKN039 07/03 Q1020 NOSIG EGFF 112220Z AUTO 12012KT 9999 FEW025 OVC030 08/08 Q1019 EGGD 112220Z AUTO 11007KT 9999 SCT018 OVC024 08/06 Q1019 EGGP 112220Z 14009KT 9999 SCT019 BKN022 08/05 Q1020 EGGW 112220Z AUTO 12006KT 5000 BR BKN019 03/03 Q1022 EGHI 112220Z 13003KT 9999 SCT034 08/05 Q1021 EGJJ 112220Z AUTO 17017KT 9999 FEW009/// 07/05 Q1020 EGKB 112220Z 12007KT 090V150 2500 -DZ BR SCT006 BKN013 06/05 Q1022 EGKK 112220Z 08004KT 2000 BR FEW023 02/02 Q1022 EGLC 112220Z AUTO 11007KT 9999 -RA BKN018 BKN026 BKN031 07/05 Q1023 EGLL 112220Z AUTO 10007KT 8000 FEW024 BKN034 06/05 Q1022 NOSIG EGMD 112220Z AUTO 14011KT 9999 FEW024/// BKN037/// 08/05 Q1023 EGNJ 112220Z AUTO 13010KT 4900 HZ NCD 03/02 Q1023 EGNM 112220Z 15009KT 0100 R14/0325 FG VV/// 03/03 Q1021 EGNT 112220Z 17007KT 130V210 2500 BR OVC003 05/05 Q1021 EGNX 112220Z 16007G19KT 060V180 9999 BKN030 04/04 Q1022 EGPA 112220Z AUTO 16022KT 9999 OVC008/// 08/07 Q1017 EGPB 112220Z AUTO 17017KT 9999 BKN017/// 08/05 Q1021 EGPC 112220Z AUTO 17018KT 9999 -RA OVC007/// 08/07 Q1017 EGPD 112220Z 17015KT 9000 SCT008 BKN010 BKN029 08/06 Q1019 NOSIG EGPE 112220Z AUTO 21010KT 9999 NCD 09/06 Q1017 EGPF 112220Z AUTO 12009KT 9999 -RA BKN028 OVC046 08/06 Q1018 EGPH 112220Z 09005KT 040V120 9999 OVC023 07/05 Q1019 EGPK 112220Z 11011KT 9999 SCT025 08/07 Q1018 EGPL 112220Z AUTO 16023G35KT 9999 BKN010/// OVC016/// 09/08 Q1012 EGPM 112220Z AUTO 15017KT 9999 FEW019/// 07/05 Q1020 EGPO 112220Z AUTO 17016KT 9999 BKN031/// 10/07 Q1014 EGPU 112220Z AUTO 14028KT 8000 OVC007/// 10/08 Q1013 EGSH 112220Z AUTO 08001KT 4000 BR NCD M00/M01 Q1024 EGSS 112220Z AUTO 12007KT 9999 NCD 05/03 Q1023 EGTE 112220Z 16007KT 9999 BKN030 10/07 Q1019 EGVA 112216Z AUTO 11005KT 9000 HZ OVC030 M A3016 RMK AO2 SLPNO ALSTG ESTMD $ KGNC 112215Z AUTO 21011KT 10SM CLR 13/05 A3008 RMK AO2 T01320050 EGCN 112220Z 15004KT 7000 FEW007 03/03 Q1024 EGPI 112220Z AUTO 15021KT 120V180 9999 BKN009/// SCT018/// 10/09 Q1014 EGTK 112220Z 11004KT 9999 FEW021 BKN034 05/04 Q1021 EGAA 112150Z 13012KT 9999 FEW008 BKN018 BKN038 10/08 Q1014 EGAC 112150Z AUTO 14013KT 9999 BKN010/// BKN016/// OVC022/// 10/09 Q1015 EGBB 112150Z 14008KT 9999 SCT022 BKN037 06/05 Q1021 EGCC 112150Z AUTO 13006KT 110V190 9999 OVC037 08/04 Q1020 NOSIG EGDM 112150Z AUTO 13008KT 9999 BKN130/// 07/05 Q1020 EGDR 112150Z 15005KT 5000 -RA FEW006 SCT012 OVC040 10/09 Q1016 GRN EGDY 112150Z 10007KT 9999 FEW020 BKN140 08/06 Q1020 BLU NOSIG EGFF 112150Z AUTO 11010KT 9999 SCT022 OVC027 08/08 Q1019 EGGD 112150Z AUTO 11006KT 9999 BKN022 OVC027 07/07 Q1019 EGGP 112150Z 15011KT 9999 SCT022 BKN025 08/05 Q1020 EGGW 112150Z AUTO 12006KT 4700 BR NCD 03/03 Q1022 EGHH 112150Z 14007KT 9999 NSC 10/06 Q1020 EGHI 112150Z 10002KT 9999 SCT034 08/04 Q1021 EGJB 112150Z 17012KT 9999 BKN010 08/07 Q1020 EGJJ 112150Z AUTO 17015KT 9999 SCT008/// 07/06 Q1020 EGKB 112150Z 13008KT 2500 -DZ BR FEW006 BKN018 06/05 Q1022 EGKK 112150Z 09004KT 3000 BR NSC 02/02 Q1022 EGLC 112150Z AUTO 09006KT 9999 SCT028 06/04 Q1023 EGLL 112150Z AUTO 09006KT 6000 SCT039 05/04 Q1022 NOSIG EGMC 112150Z 13005KT 9999 SCT034 07/04 Q1023 EGMD 112150Z AUTO 14010KT 9999 FEW023/// BKN037/// 08/04 Q1023 EGNJ 112150Z AUTO 13009KT 3700 HZ NCD 04/02 Q1023 EGNM 112150Z 13011KT 0100 R14/0250 FG VV/// 03/03 Q1021 EGNS 112150Z 14016KT 9999 FEW008 OVC028 10/08 Q1017 EGNT 112150Z 18007KT 150V220 2200 BR OVC003 05/04 Q1021 EGNV 112150Z 16006KT 130V200 3000 BR FEW003 BKN005 05/04 Q1022 EGNX 112150Z 14008KT 9999 BKN028 04/04 Q1022 EGOS 112150Z AUTO 14009KT 9999 BKN034/// BKN120/// 08/06 Q1020 EGOV 112150Z AUTO 14015KT 9999 BKN039/// 10/06 Q1017 EGPA 112150Z AUTO 16021KT 9999 OVC008/// 08/07 Q1017 EGPB 112150Z AUTO 16019KT 9999 BKN018/// 08/04 Q1020 EGPC 112150Z AUTO 17019KT 9999 OVC007/// 08/07 Q1017 EGPD 112150Z 17015KT 9000 -DZ FEW004 SCT006 BKN007 07/06 Q1019 TEMPO BKN010 EGPE 112150Z AUTO 27006KT 200V330 9999 NCD 09/06 Q1017 EGPF 112150Z AUTO 11009KT 9999 -RA BKN030 OVC044 08/06 Q1018 EGPH 112150Z 11005KT 090V160 9999 BKN026 08/06 Q1019 EGPK 112150Z 12012KT 9999 SCT027 08/06 Q1018 EGPL 112150Z AUTO 15022G34KT 9999 FEW006/// BKN009/// OVC019/// 09/08 Q1012 EGPM 112150Z AUTO 15020KT 9999 FEW018/// 07/05 Q1020 EGPO 112150Z AUTO 17013KT 9999 FEW039/// 10/07 Q1014 EGPU 112150Z AUTO 14028KT 9999 OVC006/// 10/08 Q1013 EGQK 112150Z AUTO 06004KT 9999 OVC100/// 05/04 Q1017 EGQL 112150Z 16006KT 9000 HZ OVC035 07/06 Q1020 BLU EGQM 112150Z AUTO 17012KT 4400 BR OVC004/// 05/05 Q1021 EGQS 112150Z 15005KT 9999 FEW035 BKN120 07/05 Q1017 BLU EGSH 112150Z AUTO VRB01KT 9999 NCD M00/M01 Q1024 EGSS 112150Z AUTO 12007KT 9999 FEW020 04/03 Q1023 EGTE 112150Z 17007KT 9999 FEW018 BKN029 09/06 Q1019 EGUB 112150Z 11010KT 9999 FEW030 BKN180 06/04 Q1021 BLU BECMG 7000 HZ WHT EGUL 112156Z AUTO 12007KT 9999 OVC160 04/01 A3021 RMK AO2 SLP234 T00410006 $ EGUN 112156Z AUTO 12007KT 9999 OVC160 04/04 A3020 RMK AO2 SLP230 T00370037 $ EGUN 112156Z AUTO 12007KT 9999 OVC160 04/04 A3020 RMK AO2 SLP230 T00370037 . EGVA 112156Z AUTO 09004KT 5000 BR BKN029 BKN140 OVC170 M A3016 RMK AO2 CIG 027V170 SLPNO ALSTG ESTMD $ EGVN 112150Z 12005KT 9999 FEW022 BKN150 06/05 Q1021 BLU NOSIG EGVN 112150Z 12005KT 9999 FEW022 BKN150 06/05 Q1021 NOSIG EGWU 112150Z 11006KT 8000 HZ FEW024 SCT038 05/04 Q1022 TEMPO SCT024 EGWU 112150Z 11006KT 8000 HZ FEW024 SCT038 05/04 Q1022 BLU TEMPO SCT024 WHT EGXC 112150Z 10006KT 6000 BR FEW140 SCT250 01/00 Q1023 WHT EGXT 112150Z AUTO 12004KT 3100 BR FEW140/// 01/01 Q1022 EGYD 112150Z AUTO 15008KT 3300 // NCD 01/01 Q1023 GBYD 112200Z 29007KT CAVOK 21/18 Q1013 KGNC 112155Z AUTO 21008G15KT 10SM CLR 14/05 A3008 RMK AO2 T01360050 EGCN 112150Z 14006KT 7000 SCT008 OVC013 04/04 Q1023 EGDX 112150Z AUTO 10008KT 9999 BKN020/// BKN029/// 08/07 Q1019 EGOM 112150Z AUTO 11006KT 9999 OVC020/// 05/04 Q1019 EGOP 112150Z AUTO 14013KT 9999 // BKN036/// BKN048/// 10/06 Q1017 EGPI 112150Z AUTO 14022KT 120V180 9999 BKN009/// BKN016/// 10/09 Q1014 EGUW 112150Z AUTO 12005KT 9999 FEW023/// OVC150/// 04/02 Q1023 EGVO 112150Z 11005KT 6000 BR FEW030 BKN060 BKN170 05/04 Q1021 WHT NOSIG EGVP 112150Z AUTO 10006KT 9999 // OVC150/// 07/05 Q1021 EGXE 112150Z AUTO 15010KT 0500 UP VV/// 03/03 Q1022 EGXP 112150Z AUTO 16007KT 4500 // FEW009/// 02/01 Q1022 EGXS 112150Z AUTO 15008KT 9999 // SCT019/// OVC160/// 03/02 Q1023 EGXU 112150Z AUTO 15005KT 1200 // VV/// 04/04 Q1022 EGXV 112150Z AUTO 16002KT 1900 FEW026/// M00/M00 Q1023 EGXW 112150Z 15005KT 4000 BR SKC 01/01 Q1023 GRN EGXZ 112150Z AUTO 17008KT 0250 FG VV/// 03/03 Q1022 EGYM 112150Z 11006KT 9999 FEW022 BKN150 03/01 Q1023 BLU EGTK 112150Z 11003KT 9999 BKN034 05/04 Q1021